Time;durP1;ratioP1;P1;durP2;ratioP2;P2;SDS_P1;SDS_P2;PMS_P1;PMS_P2;Temp;Humidity;BMP_temperature;BMP_pressure;BME280_temperature;BME280_humidity;BME280_pressure;Samples;Min_cycle;Max_cycle;Signal;HPM_P1;HPM_P2
2022/06/01 00:02:16;;;;;;;1.67;1.30;;;20.70;54.70;;;;;;5072841;28;20546;-69
2022/06/01 00:04:42;;;;;;;1.75;1.58;;;20.70;54.70;;;;;;5072774;28;20615;-69
2022/06/01 00:07:08;;;;;;;2.78;1.23;;;20.70;54.70;;;;;;5072707;28;20217;-68
2022/06/01 00:09:33;;;;;;;1.77;1.23;;;20.70;54.70;;;;;;5072582;28;20259;-69
2022/06/01 00:11:59;;;;;;;1.10;1.10;;;20.70;54.70;;;;;;5073381;28;20184;-69
2022/06/01 00:14:25;;;;;;;1.50;1.40;;;20.70;54.70;;;;;;5056197;28;20636;-69
2022/06/01 00:16:55;;;;;;;1.80;1.42;;;20.70;54.80;;;;;;5072377;28;20208;-69
2022/06/01 00:19:22;;;;;;;1.50;1.40;;;20.70;54.80;;;;;;5073907;28;20193;-69
2022/06/01 00:24:33;;;;;;;1.40;1.30;;;20.70;54.70;;;;;;5073194;28;20196;-69
2022/06/01 00:26:59;;;;;;;1.50;1.40;;;20.70;54.70;;;;;;5073583;28;20296;-69
2022/06/01 00:29:24;;;;;;;1.42;1.33;;;20.70;54.70;;;;;;5073101;28;20683;-69
2022/06/01 00:31:50;;;;;;;1.60;1.50;;;20.70;54.80;;;;;;5073447;28;20162;-69
2022/06/01 00:34:17;;;;;;;1.35;1.20;;;20.70;54.80;;;;;;5073492;28;20553;-69
2022/06/01 00:36:43;;;;;;;1.40;1.30;;;20.70;54.70;;;;;;5073481;28;20317;-69
2022/06/01 00:39:08;;;;;;;1.27;1.17;;;20.70;54.70;;;;;;5089647;28;20584;-69
2022/06/01 00:41:35;;;;;;;1.23;1.17;;;20.70;54.70;;;;;;5056100;28;20200;-69
2022/06/01 00:44:00;;;;;;;2.47;1.30;;;20.70;54.70;;;;;;5055541;28;20232;-69
2022/06/01 00:46:26;;;;;;;1.67;1.20;;;20.70;54.70;;;;;;5072589;28;20244;-69
2022/06/01 00:48:57;;;;;;;1.40;1.30;;;20.70;54.70;;;;;;5073553;28;20178;-69
2022/06/01 00:51:27;;;;;;;1.33;1.23;;;20.70;54.70;;;;;;5073564;28;20185;-69
2022/06/01 00:53:55;;;;;;;1.40;1.30;;;20.60;54.60;;;;;;5073599;28;20174;-69
2022/06/01 00:56:47;;;;;;;1.63;1.20;;;20.60;54.60;;;;;;5072101;28;20202;-69
2022/06/01 00:59:19;;;;;;;1.50;1.40;;;20.70;54.60;;;;;;5039656;28;20260;-69
2022/06/01 01:01:48;;;;;;;1.23;1.13;;;20.60;54.60;;;;;;5072133;28;20649;-69
2022/06/01 01:04:15;;;;;;;2.15;1.58;;;20.70;54.60;;;;;;5073027;28;20189;-69
2022/06/01 01:06:43;;;;;;;1.48;1.38;;;20.60;54.60;;;;;;5071669;28;20217;-69
2022/06/01 01:09:11;;;;;;;1.20;1.10;;;20.60;54.60;;;;;;5055607;28;20181;-69
2022/06/01 01:12:01;;;;;;;1.30;1.20;;;20.60;54.60;;;;;;5072367;28;20197;-69
2022/06/01 01:14:30;;;;;;;1.23;1.20;;;20.70;54.60;;;;;;5072028;28;20270;-70
2022/06/01 01:16:59;;;;;;;1.30;1.20;;;20.70;54.70;;;;;;5072120;28;20258;-69
2022/06/01 01:19:48;;;;;;;1.42;1.30;;;20.60;54.60;;;;;;5072285;28;20247;-69
2022/06/01 01:22:22;;;;;;;2.00;1.65;;;20.60;54.60;;;;;;5054656;28;20255;-69
2022/06/01 01:25:28;;;;;;;1.35;1.30;;;20.60;54.60;;;;;;5071147;28;20272;-69
2022/06/01 01:27:59;;;;;;;1.35;1.25;;;20.60;54.60;;;;;;5075470;28;20220;-69
2022/06/01 01:30:39;;;;;;;1.13;1.10;;;20.60;54.60;;;;;;5071241;28;20189;-69
2022/06/01 01:33:16;;;;;;;1.30;1.20;;;20.60;54.60;;;;;;5084681;28;20200;-69
2022/06/01 01:35:50;;;;;;;1.48;1.38;;;20.60;54.60;;;;;;5091489;28;20226;-69
2022/06/01 01:38:34;;;;;;;1.55;1.45;;;20.60;54.60;;;;;;5074867;28;20191;-69
2022/06/01 01:41:07;;;;;;;1.40;1.30;;;20.60;54.50;;;;;;5074677;28;20209;-69
2022/06/01 01:43:39;;;;;;;1.45;1.35;;;20.60;54.50;;;;;;5096080;28;20188;-69
2022/06/01 01:46:05;;;;;;;1.70;1.60;;;20.60;54.50;;;;;;5095402;28;20177;-69
2022/06/01 01:48:32;;;;;;;1.50;1.40;;;20.60;54.50;;;;;;5097038;28;20213;-69
2022/06/01 01:50:58;;;;;;;1.35;1.25;;;20.60;54.50;;;;;;5095219;28;20195;-69
2022/06/01 01:53:24;;;;;;;1.17;1.17;;;20.60;54.50;;;;;;5096605;28;20185;-69
2022/06/01 01:56:21;;;;;;;1.27;1.17;;;20.50;54.40;;;;;;5095543;28;20203;-67
2022/06/01 01:59:30;;;;;;;1.02;1.02;;;20.60;54.50;;;;;;5096540;28;20226;-69
2022/06/01 02:02:24;;;;;;;1.20;1.10;;;20.60;54.50;;;;;;5095249;28;20195;-69
2022/06/01 02:08:47;;;;;;;1.33;1.23;;;20.60;54.50;;;;;;5075311;28;20243;-69
2022/06/01 02:14:45;;;;;;;0.90;0.90;;;20.50;54.40;;;;;;5096561;28;20180;-69
2022/06/01 02:17:22;;;;;;;1.20;1.10;;;20.50;54.40;;;;;;5095029;28;20284;-69
2022/06/01 02:20:01;;;;;;;1.45;1.35;;;20.50;54.40;;;;;;5095188;28;20176;-69
2022/06/01 02:22:28;;;;;;;1.63;1.52;;;20.50;54.40;;;;;;5078035;28;20204;-69
2022/06/01 02:24:54;;;;;;;1.17;1.13;;;20.50;54.40;;;;;;5095118;28;20282;-69
2022/06/01 02:27:21;;;;;;;1.55;1.45;;;20.50;54.40;;;;;;5094603;28;20236;-69
2022/06/01 02:30:02;;;;;;;1.38;1.30;;;20.50;54.40;;;;;;5095764;28;20187;-69
2022/06/01 02:32:28;;;;;;;1.60;1.50;;;20.50;54.40;;;;;;5095573;28;20256;-69
2022/06/01 02:35:00;;;;;;;1.10;1.10;;;20.50;54.40;;;;;;5094489;28;20602;-69
2022/06/01 02:37:29;;;;;;;1.55;1.45;;;20.50;54.40;;;;;;5094351;28;20215;-69
2022/06/01 02:39:59;;;;;;;1.50;1.40;;;20.50;54.40;;;;;;5095980;28;20188;-69
2022/06/01 02:42:30;;;;;;;1.30;1.20;;;20.50;54.30;;;;;;5077627;28;20184;-69
2022/06/01 02:45:08;;;;;;;1.30;1.20;;;20.50;54.40;;;;;;5095311;28;20203;-69
2022/06/01 02:47:38;;;;;;;1.20;1.10;;;20.50;54.40;;;;;;5057312;28;20222;-69
2022/06/01 02:50:07;;;;;;;1.00;1.00;;;20.50;54.40;;;;;;5074313;28;20181;-68
2022/06/01 02:52:34;;;;;;;1.30;1.20;;;20.50;54.40;;;;;;5073637;28;20179;-69
2022/06/01 02:55:00;;;;;;;1.33;1.27;;;20.50;54.40;;;;;;5057100;28;20253;-69
2022/06/01 02:57:26;;;;;;;1.30;1.20;;;20.50;54.40;;;;;;5073950;28;20288;-69
2022/06/01 02:59:52;;;;;;;1.50;1.40;;;20.50;54.40;;;;;;5098617;28;20316;-69
2022/06/01 03:02:18;;;;;;;1.65;1.50;;;20.50;54.40;;;;;;5113299;28;20168;-69
2022/06/01 03:04:46;;;;;;;1.45;1.35;;;20.50;54.40;;;;;;5073953;28;20181;-70
2022/06/01 03:07:13;;;;;;;1.50;1.40;;;20.50;54.40;;;;;;5074770;28;20275;-69
2022/06/01 03:09:39;;;;;;;1.35;1.25;;;20.50;54.30;;;;;;5075464;28;20170;-69
2022/06/01 03:12:07;;;;;;;1.48;1.38;;;20.50;54.30;;;;;;5056987;28;20174;-69
2022/06/01 03:14:36;;;;;;;1.35;1.25;;;20.50;54.30;;;;;;5075262;28;20282;-69
2022/06/01 03:17:06;;;;;;;1.20;1.15;;;20.50;54.30;;;;;;5057169;28;20201;-69
2022/06/01 03:19:32;;;;;;;1.30;1.20;;;20.50;54.30;;;;;;5074920;28;20192;-69
2022/06/01 03:21:58;;;;;;;1.35;1.27;;;20.50;54.30;;;;;;5056861;28;20323;-69
2022/06/01 03:24:24;;;;;;;1.10;1.00;;;20.50;54.30;;;;;;5074889;28;20174;-69
2022/06/01 03:26:50;;;;;;;1.20;1.10;;;20.50;54.30;;;;;;5056674;28;20217;-69
2022/06/01 03:29:15;;;;;;;1.00;1.00;;;20.50;54.30;;;;;;5074700;28;20178;-69
2022/06/01 03:31:41;;;;;;;1.13;1.13;;;20.50;54.30;;;;;;5056803;28;20533;-69
2022/06/01 03:34:08;;;;;;;1.02;1.02;;;20.50;54.30;;;;;;5073330;28;20189;-69
2022/06/01 03:36:33;;;;;;;1.20;1.10;;;20.50;54.30;;;;;;5074226;28;20205;-69
2022/06/01 03:38:59;;;;;;;0.80;0.80;;;20.40;54.30;;;;;;5074576;28;20189;-69
2022/06/01 03:41:27;;;;;;;2.08;1.10;;;20.50;54.30;;;;;;5073038;28;20189;-70
2022/06/01 03:46:39;;;;;;;1.40;1.30;;;20.40;54.30;;;;;;5073152;28;20231;-69
2022/06/01 03:49:05;;;;;;;1.40;1.30;;;20.40;54.30;;;;;;5074519;28;20178;-69
2022/06/01 03:51:31;;;;;;;1.30;1.20;;;20.40;54.30;;;;;;5056295;28;20278;-69
2022/06/01 03:53:56;;;;;;;1.50;1.40;;;20.40;54.30;;;;;;5073098;28;20649;-70
2022/06/01 03:56:23;;;;;;;1.20;1.20;;;20.40;54.20;;;;;;5074130;28;20198;-69
2022/06/01 03:58:53;;;;;;;1.50;1.40;;;20.40;54.30;;;;;;5074395;28;20174;-69
2022/06/01 04:01:19;;;;;;;2.47;1.70;;;20.40;54.20;;;;;;5072816;28;20708;-69
2022/06/01 04:03:46;;;;;;;1.50;1.40;;;20.40;54.20;;;;;;5072765;28;20192;-69
2022/06/01 04:06:12;;;;;;;1.40;1.30;;;20.40;54.20;;;;;;5072646;28;20233;-69
2022/06/01 04:08:38;;;;;;;1.30;1.00;;;20.40;54.20;;;;;;5072692;28;20244;-69
2022/06/01 04:11:05;;;;;;;1.38;1.27;;;20.40;54.20;;;;;;5072377;28;20288;-69
2022/06/01 04:13:31;;;;;;;1.38;1.27;;;20.40;54.20;;;;;;5055841;28;20277;-69
2022/06/01 04:15:57;;;;;;;1.33;1.20;;;20.40;54.20;;;;;;5072414;28;20675;-69
2022/06/01 04:18:23;;;;;;;1.20;1.10;;;20.40;54.30;;;;;;5072597;28;20182;-69
2022/06/01 04:20:52;;;;;;;1.30;1.20;;;20.40;54.20;;;;;;5073536;28;20178;-69
2022/06/01 04:23:18;;;;;;;1.50;1.40;;;20.40;54.20;;;;;;5072479;28;20178;-69
2022/06/01 04:25:44;;;;;;;1.10;1.10;;;20.40;54.20;;;;;;5073403;28;20190;-69
2022/06/01 04:28:10;;;;;;;1.40;1.30;;;20.40;54.30;;;;;;5073486;28;20205;-69
2022/06/01 04:30:36;;;;;;;1.08;1.08;;;20.40;54.30;;;;;;5055225;28;20186;-69
2022/06/01 04:33:04;;;;;;;1.40;1.30;;;20.40;54.30;;;;;;5072263;28;20188;-69
2022/06/01 04:35:29;;;;;;;1.58;1.48;;;20.40;54.20;;;;;;5072233;28;20181;-69
2022/06/01 04:38:12;;;;;;;1.50;1.40;;;20.40;54.20;;;;;;5072407;28;20222;-69
2022/06/01 04:40:49;;;;;;;2.10;1.73;;;20.40;54.20;;;;;;5073060;28;20174;-69
2022/06/01 04:43:21;;;;;;;1.85;1.75;;;20.40;54.20;;;;;;5055396;28;20252;-69
2022/06/01 04:45:50;;;;;;;1.73;1.63;;;20.40;54.20;;;;;;5072940;28;20174;-69
2022/06/01 04:48:17;;;;;;;1.30;1.20;;;20.40;54.20;;;;;;5055262;28;20229;-69
2022/06/01 04:50:43;;;;;;;1.65;1.55;;;20.40;54.20;;;;;;5054930;28;20189;-69
2022/06/01 04:53:15;;;;;;;1.40;1.30;;;20.40;54.20;;;;;;5071851;28;20720;-69
2022/06/01 04:55:43;;;;;;;1.50;1.40;;;20.40;54.20;;;;;;5055153;28;20178;-69
2022/06/01 04:58:11;;;;;;;1.27;1.17;;;20.40;54.20;;;;;;5055750;28;20216;-69
2022/06/01 05:00:38;;;;;;;1.50;1.40;;;20.40;54.20;;;;;;5071598;28;20193;-69
2022/06/01 05:03:05;;;;;;;1.58;1.48;;;20.40;54.20;;;;;;5054985;28;20185;-70
2022/06/01 05:05:30;;;;;;;1.40;1.30;;;20.40;54.20;;;;;;5071175;28;20194;-69
2022/06/01 05:07:57;;;;;;;1.30;1.30;;;20.40;54.30;;;;;;5071839;28;20224;-69
2022/06/01 05:10:23;;;;;;;1.30;1.25;;;20.40;54.20;;;;;;5071602;28;20184;-70
2022/06/01 05:12:50;;;;;;;1.17;1.15;;;20.50;54.30;;;;;;5090779;28;20228;-69
2022/06/01 05:15:16;;;;;;;1.45;1.35;;;20.50;54.30;;;;;;5070795;28;20189;-69
2022/06/01 05:17:42;;;;;;;1.73;1.30;;;20.40;54.20;;;;;;5069738;28;20270;-70
2022/06/01 05:20:10;;;;;;;1.35;1.30;;;20.50;54.30;;;;;;5070818;28;20186;-70
2022/06/01 05:22:36;;;;;;;1.80;1.52;;;20.50;54.30;;;;;;5070534;28;20197;-69
2022/06/01 05:25:02;;;;;;;1.50;1.40;;;20.50;54.30;;;;;;5071751;28;20181;-69
2022/06/01 05:27:28;;;;;;;1.55;1.45;;;20.50;54.40;;;;;;5071686;28;20244;-69
2022/06/01 05:29:54;;;;;;;1.70;1.40;;;20.50;54.40;;;;;;5070563;28;20221;-69
2022/06/01 05:32:20;;;;;;;1.83;1.73;;;20.50;54.40;;;;;;5070348;28;20698;-69
2022/06/01 05:34:46;;;;;;;1.52;1.40;;;20.50;54.40;;;;;;5070501;28;20228;-69
2022/06/01 05:37:12;;;;;;;1.60;1.50;;;20.50;54.40;;;;;;5070475;28;20237;-70
2022/06/01 05:39:38;;;;;;;1.45;1.35;;;20.50;54.40;;;;;;5054300;28;20196;-69
2022/06/01 05:42:05;;;;;;;2.28;1.50;;;20.50;54.40;;;;;;5071606;28;20192;-70
2022/06/01 05:44:31;;;;;;;1.83;1.48;;;20.50;54.40;;;;;;5070688;28;20181;-69
2022/06/01 05:47:00;;;;;;;1.48;1.38;;;20.50;54.40;;;;;;5053491;28;20249;-69
2022/06/01 05:49:26;;;;;;;2.30;1.40;;;20.50;54.50;;;;;;5070690;28;20211;-71
2022/06/01 05:51:53;;;;;;;1.38;1.20;;;20.50;54.40;;;;;;5070618;28;20264;-69
2022/06/01 05:54:19;;;;;;;1.63;1.30;;;20.50;54.50;;;;;;5072999;28;20189;-70
2022/06/01 05:56:46;;;;;;;1.58;1.20;;;20.50;54.50;;;;;;5087533;28;20213;-70
2022/06/01 05:59:12;;;;;;;1.40;1.30;;;20.50;54.50;;;;;;5084063;28;20188;-69
2022/06/01 06:01:39;;;;;;;1.95;1.35;;;20.50;54.50;;;;;;5110777;28;20196;-69
2022/06/01 06:04:05;;;;;;;1.48;1.30;;;20.50;54.50;;;;;;5110797;28;20180;-69
2022/06/01 06:06:32;;;;;;;1.27;1.15;;;20.50;54.50;;;;;;5111889;28;20200;-69
2022/06/01 06:09:09;;;;;;;1.67;1.20;;;20.50;54.50;;;;;;5112137;28;20180;-69
2022/06/01 06:11:40;;;;;;;1.90;1.35;;;20.50;54.60;;;;;;5110763;28;20278;-69
2022/06/01 06:14:07;;;;;;;1.58;1.48;;;20.50;54.60;;;;;;5110775;28;20184;-69
2022/06/01 06:16:42;;;;;;;1.80;1.70;;;20.50;54.60;;;;;;5110876;28;20199;-70
2022/06/01 06:19:09;;;;;;;1.48;1.38;;;20.50;54.60;;;;;;5110819;28;20187;-69
2022/06/01 06:21:35;;;;;;;1.73;1.40;;;20.50;54.60;;;;;;5110454;28;20184;-69
2022/06/01 06:24:10;;;;;;;1.40;1.30;;;20.50;54.60;;;;;;5093778;28;20191;-71
2022/06/01 06:26:38;;;;;;;1.40;1.30;;;20.50;54.70;;;;;;5111568;28;20274;-69
2022/06/01 06:29:08;;;;;;;1.40;1.27;;;20.50;54.70;;;;;;5114451;28;20279;-69
2022/06/01 06:31:35;;;;;;;1.65;1.50;;;20.50;54.80;;;;;;5114230;28;20208;-69
2022/06/01 06:34:01;;;;;;;1.45;1.30;;;20.50;54.80;;;;;;5114376;28;20237;-69
2022/06/01 06:36:27;;;;;;;1.35;1.25;;;20.60;54.80;;;;;;5114016;28;20208;-69
2022/06/01 06:38:53;;;;;;;1.10;1.10;;;20.60;54.80;;;;;;5097352;28;20177;-69
2022/06/01 06:41:20;;;;;;;1.25;1.10;;;20.60;54.80;;;;;;5115097;28;20180;-70
2022/06/01 06:43:47;;;;;;;1.48;1.38;;;20.50;54.80;;;;;;5115364;28;20263;-69
2022/06/01 06:46:16;;;;;;;1.25;1.15;;;20.50;54.80;;;;;;5114027;28;20294;-71
2022/06/01 06:48:45;;;;;;;1.20;1.20;;;20.60;54.90;;;;;;5113942;28;20273;-69
2022/06/01 06:51:12;;;;;;;1.60;1.50;;;20.60;55.50;;;;;;5113870;28;20180;-70
2022/06/01 06:53:38;;;;;;;1.90;1.48;;;20.60;54.90;;;;;;5096628;28;20176;-69
2022/06/01 06:56:05;;;;;;;1.48;1.38;;;20.60;54.90;;;;;;5113759;28;20184;-70
2022/06/01 06:58:32;;;;;;;1.88;1.35;;;20.60;54.90;;;;;;5113098;27;20184;-69
2022/06/01 07:00:58;;;;;;;1.50;1.40;;;20.60;55.00;;;;;;5076310;28;20192;-70
2022/06/01 07:03:24;;;;;;;2.10;1.80;;;20.60;54.90;;;;;;5094416;28;20188;-70
2022/06/01 07:06:09;;;;;;;1.55;1.45;;;20.60;55.00;;;;;;5093928;28;20185;-70
2022/06/01 07:08:36;;;;;;;1.67;1.30;;;20.60;55.10;;;;;;5094374;28;20208;-69
2022/06/01 07:11:03;;;;;;;1.48;1.38;;;20.60;55.10;;;;;;5094356;28;20663;-69
2022/06/01 07:13:29;;;;;;;1.67;1.38;;;20.60;55.00;;;;;;5093449;28;20209;-70
2022/06/01 07:16:13;;;;;;;1.27;1.20;;;20.60;55.00;;;;;;5092823;28;20250;-69
2022/06/01 07:18:42;;;;;;;1.13;1.10;;;20.60;55.10;;;;;;5094372;28;20184;-69
2022/06/01 07:21:09;;;;;;;1.45;1.35;;;20.60;55.10;;;;;;5090239;28;20192;-69
2022/06/01 07:23:37;;;;;;;1.70;1.35;;;20.60;55.10;;;;;;5092837;28;20656;-70
2022/06/01 07:26:06;;;;;;;1.20;1.10;;;20.70;55.10;;;;;;5076106;28;20188;-70
2022/06/01 07:28:33;;;;;;;2.15;1.45;;;20.60;55.10;;;;;;5092862;28;20303;-70
2022/06/01 07:30:58;;;;;;;1.73;1.50;;;20.70;55.30;;;;;;5093839;28;20277;-69
2022/06/01 07:33:28;;;;;;;1.17;1.10;;;20.70;55.40;;;;;;5094010;28;20211;-69
2022/06/01 07:35:55;;;;;;;1.50;1.40;;;20.70;55.30;;;;;;5090501;28;20263;-70
2022/06/01 07:43:57;;;;;;;1.45;1.35;;;20.70;55.50;;;;;;5073720;28;20188;-69
2022/06/01 07:46:23;;;;;;;2.10;1.67;;;20.70;55.50;;;;;;5073373;28;20201;-69
2022/06/01 07:48:49;;;;;;;1.30;1.20;;;20.70;55.50;;;;;;5073302;28;20201;-69
2022/06/01 07:51:17;;;;;;;1.48;1.38;;;20.70;55.60;;;;;;5073477;28;20186;-70
2022/06/01 07:53:43;;;;;;;2.33;1.40;;;20.70;55.70;;;;;;5072460;28;20653;-70
2022/06/01 07:56:09;;;;;;;1.55;1.45;;;20.80;55.70;;;;;;5071891;28;20182;-70
2022/06/01 07:58:36;;;;;;;2.38;1.70;;;20.80;55.40;;;;;;5095632;28;20259;-70
2022/06/01 08:01:03;;;;;;;1.42;1.33;;;20.80;55.40;;;;;;5112403;28;20188;-70
2022/06/01 08:03:28;;;;;;;1.20;1.10;;;20.80;55.30;;;;;;5113756;28;20184;-70
2022/06/01 08:05:54;;;;;;;1.73;1.30;;;20.80;55.20;;;;;;5095688;28;20199;-69
2022/06/01 08:08:20;;;;;;;3.15;1.40;;;20.80;55.10;;;;;;5095563;28;20216;-69
2022/06/01 08:10:46;;;;;;;1.33;1.23;;;20.80;55.10;;;;;;5095661;28;20215;-69
2022/06/01 08:13:15;;;;;;;1.30;1.20;;;20.80;55.10;;;;;;5113450;28;20180;-69
2022/06/01 08:15:48;;;;;;;1.90;1.48;;;20.80;55.70;;;;;;5112505;28;20263;-69
2022/06/01 08:18:20;;;;;;;1.40;1.30;;;20.80;55.10;;;;;;5112445;28;20259;-70
2022/06/01 08:20:47;;;;;;;1.42;1.13;;;20.80;55.10;;;;;;5113320;28;20187;-69
2022/06/01 08:23:14;;;;;;;1.35;1.25;;;20.90;55.20;;;;;;5095134;28;20180;-70
2022/06/01 08:25:42;;;;;;;1.13;1.02;;;20.90;55.20;;;;;;5113247;28;20180;-70
2022/06/01 08:28:09;;;;;;;1.38;1.27;;;20.80;55.10;;;;;;5112012;28;20220;-70
2022/06/01 08:30:38;;;;;;;1.40;1.30;;;20.90;55.20;;;;;;5095127;28;20264;-70
2022/06/01 08:33:05;;;;;;;1.30;1.05;;;20.80;55.00;;;;;;5111793;28;20184;-71
2022/06/01 08:35:39;;;;;;;1.50;1.38;;;20.90;55.10;;;;;;5112212;28;20184;-70
2022/06/01 08:38:06;;;;;;;1.10;1.10;;;20.80;55.00;;;;;;5111902;28;20277;-70
2022/06/01 08:41:01;;;;;;;1.38;1.15;;;20.90;55.10;;;;;;5111890;28;20185;-70
2022/06/01 08:43:34;;;;;;;1.45;1.23;;;20.80;54.90;;;;;;5111851;28;20192;-70
2022/06/01 08:46:02;;;;;;;1.27;1.20;;;20.90;54.80;;;;;;5112901;28;20189;-70
2022/06/01 08:48:42;;;;;;;1.60;1.20;;;20.90;54.90;;;;;;5112811;28;20200;-70
2022/06/01 08:51:10;;;;;;;1.10;1.08;;;20.90;55.00;;;;;;5093728;28;20276;-70
2022/06/01 08:53:36;;;;;;;0.90;0.90;;;20.90;55.00;;;;;;5094541;28;20266;-70
2022/06/01 08:56:13;;;;;;;2.08;1.10;;;20.90;54.90;;;;;;5094530;28;20237;-70
2022/06/01 08:58:57;;;;;;;1.73;1.30;;;20.90;54.90;;;;;;5109422;28;20188;-70
2022/06/01 09:01:50;;;;;;;1.17;1.08;;;20.90;54.90;;;;;;5074000;28;20196;-70
2022/06/01 09:04:56;;;;;;;1.67;1.40;;;20.90;54.80;;;;;;5091430;28;20181;-70
2022/06/01 09:07:33;;;;;;;1.90;1.48;;;20.90;54.60;;;;;;5092169;28;20204;-70
2022/06/01 09:10:29;;;;;;;1.48;1.27;;;20.90;54.80;;;;;;5092398;28;20246;-70
2022/06/01 09:13:13;;;;;;;1.38;1.27;;;20.90;54.70;;;;;;5074133;28;20238;-70
2022/06/01 09:15:52;;;;;;;1.50;1.05;;;20.90;54.60;;;;;;5088352;28;20189;-70
2022/06/01 09:18:43;;;;;;;1.30;1.10;;;20.90;54.60;;;;;;5074475;28;20193;-70
2022/06/01 09:24:22;;;;;;;2.25;1.20;;;20.90;54.70;;;;;;5090936;28;20263;-70
2022/06/01 09:26:55;;;;;;;1.23;1.10;;;20.90;54.70;;;;;;5092021;28;20205;-70
2022/06/01 09:29:32;;;;;;;1.23;1.10;;;21.00;54.60;;;;;;5073924;28;20225;-70
2022/06/01 09:32:12;;;;;;;1.30;1.20;;;20.90;54.60;;;;;;5092656;28;20263;-70
2022/06/01 09:34:44;;;;;;;1.20;1.05;;;20.90;54.60;;;;;;5090733;28;20181;-70
2022/06/01 09:37:18;;;;;;;1.00;1.00;;;20.90;54.60;;;;;;5087811;28;20230;-69
2022/06/01 09:40:00;;;;;;;1.75;1.20;;;21.00;54.40;;;;;;5073872;28;20229;-70
2022/06/01 09:42:37;;;;;;;1.00;1.00;;;21.00;54.50;;;;;;5073746;28;20188;-70
2022/06/01 09:45:22;;;;;;;1.10;1.10;;;20.90;54.70;;;;;;5073879;28;20540;-69
2022/06/01 09:47:50;;;;;;;1.27;1.15;;;21.00;54.70;;;;;;5090704;28;20219;-70
2022/06/01 09:50:33;;;;;;;1.30;1.20;;;21.00;54.60;;;;;;5090700;28;20184;-70
2022/06/01 09:53:21;;;;;;;1.20;1.10;;;21.00;54.60;;;;;;5071572;28;20197;-70
2022/06/01 09:55:58;;;;;;;1.10;1.10;;;21.00;54.70;;;;;;5070395;28;20201;-70
2022/06/01 10:07:30;;;;;;;1.35;1.25;;;21.00;54.60;;;;;;5100368;28;20357;-71
2022/06/01 10:10:04;;;;;;;1.95;1.27;;;21.00;54.70;;;;;;5114816;28;20275;-70
2022/06/01 10:12:47;;;;;;;0.95;0.90;;;21.00;54.70;;;;;;5097649;28;20643;-70
2022/06/01 10:15:42;;;;;;;1.20;1.00;;;21.00;54.60;;;;;;5114973;28;20170;-70
2022/06/01 10:18:21;;;;;;;1.63;1.20;;;21.00;54.60;;;;;;5114725;28;20204;-70
2022/06/01 10:20:59;;;;;;;1.60;1.27;;;21.00;54.70;;;;;;5098041;28;20225;-70
2022/06/01 10:23:49;;;;;;;2.00;1.80;;;21.00;54.70;;;;;;5114592;28;20226;-70
2022/06/01 10:26:33;;;;;;;0.98;0.98;;;21.00;54.80;;;;;;5114782;28;20211;-70
2022/06/01 10:29:15;;;;;;;1.05;1.00;;;21.00;54.70;;;;;;5114623;28;20202;-70
2022/06/01 10:31:50;;;;;;;1.08;1.05;;;21.00;54.70;;;;;;5115391;28;20180;-70
2022/06/01 10:34:29;;;;;;;1.40;1.27;;;21.00;54.70;;;;;;5114449;28;20274;-70
2022/06/01 10:37:41;;;;;;;1.02;1.02;;;21.00;54.80;;;;;;5097058;28;20227;-70
2022/06/01 10:40:12;;;;;;;1.23;1.15;;;21.00;54.80;;;;;;5114328;28;20286;-70
2022/06/01 10:45:53;;;;;;;1.20;1.10;;;21.00;54.70;;;;;;5055501;28;20197;-70
2022/06/01 10:48:39;;;;;;;1.25;1.20;;;21.00;54.70;;;;;;5107812;27;20223;-70
2022/06/01 10:51:31;;;;;;;1.55;1.17;;;21.00;54.80;;;;;;5114986;28;20570;-70
2022/06/01 10:54:39;;;;;;;1.40;1.30;;;21.00;54.80;;;;;;5115253;28;20184;-70
2022/06/01 10:57:18;;;;;;;1.35;1.25;;;21.00;54.70;;;;;;5114992;28;20200;-72
2022/06/01 10:59:44;;;;;;;1.10;1.00;;;21.00;54.60;;;;;;5082114;28;20192;-70
2022/06/01 11:02:31;;;;;;;1.80;1.30;;;21.00;54.70;;;;;;5056339;28;20224;-70
2022/06/01 11:05:34;;;;;;;1.27;1.02;;;21.00;54.70;;;;;;5073436;28;20189;-70
2022/06/01 11:08:59;;;;;;;1.23;1.13;;;21.10;54.80;;;;;;5089735;28;20233;-68
2022/06/01 11:12:05;;;;;;;1.15;1.05;;;21.10;54.90;;;;;;5089677;28;20304;-70
2022/06/01 11:15:06;;;;;;;1.40;1.30;;;21.10;54.80;;;;;;5071968;28;20181;-70
2022/06/01 11:17:45;;;;;;;1.48;1.35;;;21.10;54.80;;;;;;5089806;28;20594;-71
2022/06/01 11:21:00;;;;;;;1.85;1.08;;;21.10;54.80;;;;;;5072939;28;20563;-70
2022/06/01 11:23:50;;;;;;;2.08;1.25;;;21.10;54.80;;;;;;5072921;28;20196;-70
2022/06/01 11:27:10;;;;;;;1.15;1.02;;;21.10;54.70;;;;;;5075628;28;20205;-70
2022/06/01 11:30:08;;;;;;;1.05;1.02;;;21.10;54.80;;;;;;5047611;28;20208;-70
2022/06/01 11:32:42;;;;;;;1.27;1.17;;;21.10;54.70;;;;;;5075877;28;20189;-69
2022/06/01 11:35:37;;;;;;;1.42;1.10;;;21.10;54.80;;;;;;5092768;28;20275;-70
2022/06/01 11:38:22;;;;;;;1.15;1.10;;;21.10;54.80;;;;;;5085613;28;20205;-70
2022/06/01 11:41:00;;;;;;;0.93;0.93;;;21.10;54.80;;;;;;5067479;28;20605;-70
2022/06/01 11:43:41;;;;;;;1.67;1.05;;;21.10;54.80;;;;;;5072360;28;20181;-69
2022/06/01 11:46:22;;;;;;;1.10;1.00;;;21.20;54.80;;;;;;5072334;28;20189;-70
2022/06/01 11:48:57;;;;;;;0.90;0.88;;;21.10;54.60;;;;;;5095091;28;20216;-70
2022/06/01 11:51:48;;;;;;;1.10;1.10;;;21.10;54.70;;;;;;5075473;28;20186;-70
2022/06/01 11:54:29;;;;;;;1.30;1.20;;;21.10;54.70;;;;;;5093012;28;20684;-70
2022/06/01 11:57:17;;;;;;;1.20;1.10;;;21.20;54.80;;;;;;5093040;28;20208;-70
2022/06/01 11:59:55;;;;;;;0.90;0.90;;;21.20;54.90;;;;;;5076154;28;20185;-70
2022/06/01 12:02:42;;;;;;;1.05;0.98;;;21.20;54.80;;;;;;5092225;28;20188;-70
2022/06/01 12:05:20;;;;;;;1.20;1.10;;;21.20;54.90;;;;;;5075865;28;20181;-70
2022/06/01 12:07:56;;;;;;;1.15;1.05;;;21.20;54.80;;;;;;5093655;28;20213;-71
2022/06/01 12:10:30;;;;;;;1.10;1.10;;;21.10;54.80;;;;;;5093262;28;20168;-71
2022/06/01 12:12:55;;;;;;;1.17;1.00;;;21.10;54.80;;;;;;5092019;28;20242;-70
2022/06/01 12:15:40;;;;;;;1.30;1.20;;;21.10;54.80;;;;;;5093580;28;20212;-72
2022/06/01 12:18:12;;;;;;;0.93;0.93;;;21.20;54.80;;;;;;5092068;28;20208;-71
2022/06/01 12:20:37;;;;;;;0.90;0.90;;;21.20;54.80;;;;;;5091928;28;20181;-70
2022/06/01 12:28:57;;;;;;;1.52;1.23;;;21.10;54.60;;;;;;5092903;28;20262;-70
2022/06/01 12:31:31;;;;;;;1.05;0.85;;;21.10;54.60;;;;;;5091715;28;20208;-70
2022/06/01 12:34:26;;;;;;;1.00;1.00;;;21.20;54.60;;;;;;5074799;28;20191;-71
2022/06/01 12:37:17;;;;;;;1.52;1.23;;;21.20;54.60;;;;;;5092806;28;20208;-71
2022/06/01 12:39:53;;;;;;;1.02;1.00;;;21.20;54.70;;;;;;5091598;28;20185;-70
2022/06/01 12:42:29;;;;;;;1.20;1.00;;;21.20;54.60;;;;;;5091448;28;20712;-71
2022/06/01 12:44:59;;;;;;;1.20;1.10;;;21.20;54.60;;;;;;5091552;28;20187;-70
2022/06/01 12:47:37;;;;;;;1.40;1.00;;;21.10;54.50;;;;;;5091170;28;20262;-69
2022/06/01 12:50:17;;;;;;;1.45;1.17;;;21.20;54.50;;;;;;5091639;28;20194;-70
2022/06/01 12:52:44;;;;;;;1.50;1.20;;;21.10;54.50;;;;;;5074271;28;20230;-71
2022/06/01 12:55:21;;;;;;;2.05;1.05;;;21.20;54.60;;;;;;5091572;28;20181;-71
2022/06/01 12:57:55;;;;;;;1.15;1.05;;;21.20;54.60;;;;;;5091554;28;20349;-71
2022/06/01 13:00:30;;;;;;;1.05;0.98;;;21.20;54.60;;;;;;5107896;28;20268;-70
2022/06/01 13:02:56;;;;;;;1.10;1.00;;;21.20;54.60;;;;;;5094792;28;20194;-71
2022/06/01 13:05:46;;;;;;;1.48;0.90;;;21.20;54.50;;;;;;5094950;28;20194;-70
2022/06/01 13:08:32;;;;;;;0.90;0.90;;;21.20;54.60;;;;;;5111341;28;20302;-70
2022/06/01 13:11:26;;;;;;;2.28;1.48;;;21.20;54.60;;;;;;5112634;28;20237;-70
2022/06/01 13:13:52;;;;;;;2.88;1.20;;;21.20;54.60;;;;;;5111420;28;20275;-70
2022/06/01 13:16:21;;;;;;;1.38;1.20;;;21.20;54.60;;;;;;5111298;28;20274;-70
2022/06/01 13:18:48;;;;;;;1.55;1.17;;;21.20;54.60;;;;;;5094649;28;20270;-71
2022/06/01 13:21:32;;;;;;;2.67;1.30;;;21.20;54.80;;;;;;5111184;28;20237;-70
2022/06/01 13:24:08;;;;;;;1.30;1.20;;;21.20;54.70;;;;;;5111208;28;20214;-70
2022/06/01 13:26:48;;;;;;;1.90;1.38;;;21.20;54.60;;;;;;5111171;28;20290;-71
2022/06/01 13:29:31;;;;;;;3.25;1.40;;;21.20;54.50;;;;;;5111376;28;20187;-70
2022/06/01 13:32:06;;;;;;;1.33;0.98;;;21.20;54.60;;;;;;5106148;28;20189;-70
2022/06/01 13:34:46;;;;;;;1.92;1.45;;;21.20;54.60;;;;;;5073213;28;20197;-70
2022/06/01 13:37:20;;;;;;;1.15;1.13;;;21.20;54.60;;;;;;5070923;28;20213;-70
2022/06/01 13:40:20;;;;;;;2.20;1.10;;;21.20;54.50;;;;;;5075007;28;20199;-70
2022/06/01 13:43:10;;;;;;;1.45;1.30;;;21.20;54.60;;;;;;5074600;28;20268;-71
2022/06/01 13:46:02;;;;;;;2.58;1.15;;;21.20;54.40;;;;;;5087652;28;20232;-70
2022/06/01 13:48:41;;;;;;;2.58;1.35;;;21.20;54.30;;;;;;5114993;28;20225;-70
2022/06/01 13:51:24;;;;;;;2.30;1.10;;;21.20;54.20;;;;;;5116404;28;20204;-70
2022/06/01 13:53:50;;;;;;;2.03;1.10;;;21.20;54.50;;;;;;5115073;28;20184;-70
2022/06/01 13:56:30;;;;;;;1.77;1.10;;;21.20;54.50;;;;;;5115274;28;20196;-69
2022/06/01 13:59:02;;;;;;;1.55;1.05;;;21.30;54.40;;;;;;5110281;28;20198;-68
2022/06/01 14:01:45;;;;;;;6.45;1.63;;;21.20;54.60;;;;;;5095530;28;20196;-70